sensor_id;sensor_type;location;lat;lon;timestamp;temperature;humidity
39815;DHT22;25495;45.948;4.568;2022-07-29T00:00:44;21.50;75.30
39815;DHT22;25495;45.948;4.568;2022-07-29T00:03:11;21.50;75.40
39815;DHT22;25495;45.948;4.568;2022-07-29T00:05:39;21.50;76.40
39815;DHT22;25495;45.948;4.568;2022-07-29T00:08:05;21.30;75.90
39815;DHT22;25495;45.948;4.568;2022-07-29T00:10:31;21.10;76.00
39815;DHT22;25495;45.948;4.568;2022-07-29T00:12:57;21.10;76.20
39815;DHT22;25495;45.948;4.568;2022-07-29T00:15:22;21.10;76.30
39815;DHT22;25495;45.948;4.568;2022-07-29T00:17:48;21.00;76.50
39815;DHT22;25495;45.948;4.568;2022-07-29T00:20:14;20.90;76.80
39815;DHT22;25495;45.948;4.568;2022-07-29T00:22:40;20.90;77.10
39815;DHT22;25495;45.948;4.568;2022-07-29T00:25:06;20.90;77.10
39815;DHT22;25495;45.948;4.568;2022-07-29T00:27:33;20.90;77.20
39815;DHT22;25495;45.948;4.568;2022-07-29T00:29:59;20.90;77.10
39815;DHT22;25495;45.948;4.568;2022-07-29T00:32:25;20.90;77.30
39815;DHT22;25495;45.948;4.568;2022-07-29T00:34:51;20.80;77.20
39815;DHT22;25495;45.948;4.568;2022-07-29T00:37:35;20.80;77.30
39815;DHT22;25495;45.948;4.568;2022-07-29T00:40:01;20.80;77.20
39815;DHT22;25495;45.948;4.568;2022-07-29T00:42:26;20.80;76.70
39815;DHT22;25495;45.948;4.568;2022-07-29T00:44:52;20.90;76.70
39815;DHT22;25495;45.948;4.568;2022-07-29T00:47:18;21.00;76.70
39815;DHT22;25495;45.948;4.568;2022-07-29T00:49:44;21.00;76.90
39815;DHT22;25495;45.948;4.568;2022-07-29T00:52:11;20.90;76.90
39815;DHT22;25495;45.948;4.568;2022-07-29T00:54:39;20.90;76.50
39815;DHT22;25495;45.948;4.568;2022-07-29T00:57:06;20.90;77.30
39815;DHT22;25495;45.948;4.568;2022-07-29T00:59:33;20.70;77.40
39815;DHT22;25495;45.948;4.568;2022-07-29T01:01:59;20.70;77.10
39815;DHT22;25495;45.948;4.568;2022-07-29T01:04:25;20.50;77.20
39815;DHT22;25495;45.948;4.568;2022-07-29T01:06:51;20.20;78.40
39815;DHT22;25495;45.948;4.568;2022-07-29T01:09:19;20.60;76.70
39815;DHT22;25495;45.948;4.568;2022-07-29T01:11:46;20.80;75.90
39815;DHT22;25495;45.948;4.568;2022-07-29T01:14:14;21.00;75.10
39815;DHT22;25495;45.948;4.568;2022-07-29T01:16:53;20.90;75.50
39815;DHT22;25495;45.948;4.568;2022-07-29T01:28:01;20.70;76.50
39815;DHT22;25495;45.948;4.568;2022-07-29T01:30:35;20.80;77.10
39815;DHT22;25495;45.948;4.568;2022-07-29T01:33:05;20.80;76.30
39815;DHT22;25495;45.948;4.568;2022-07-29T01:35:36;20.70;77.10
39815;DHT22;25495;45.948;4.568;2022-07-29T01:38:10;20.60;77.30
39815;DHT22;25495;45.948;4.568;2022-07-29T01:40:51;20.60;77.20
39815;DHT22;25495;45.948;4.568;2022-07-29T01:43:36;20.60;76.90
39815;DHT22;25495;45.948;4.568;2022-07-29T01:46:11;20.70;76.60
39815;DHT22;25495;45.948;4.568;2022-07-29T01:48:50;20.80;75.90
39815;DHT22;25495;45.948;4.568;2022-07-29T01:51:21;20.80;75.60
39815;DHT22;25495;45.948;4.568;2022-07-29T01:56:42;21.00;75.40
39815;DHT22;25495;45.948;4.568;2022-07-29T01:59:10;21.10;76.00
39815;DHT22;25495;45.948;4.568;2022-07-29T02:01:37;21.00;75.60
39815;DHT22;25495;45.948;4.568;2022-07-29T02:04:06;20.90;75.90
39815;DHT22;25495;45.948;4.568;2022-07-29T02:06:34;20.80;77.00
39815;DHT22;25495;45.948;4.568;2022-07-29T02:09:02;20.80;76.90
39815;DHT22;25495;45.948;4.568;2022-07-29T02:11:30;20.50;77.60
39815;DHT22;25495;45.948;4.568;2022-07-29T02:13:57;20.60;77.40
39815;DHT22;25495;45.948;4.568;2022-07-29T02:16:27;20.70;78.40
39815;DHT22;25495;45.948;4.568;2022-07-29T02:18:53;20.70;77.70
39815;DHT22;25495;45.948;4.568;2022-07-29T02:21:24;20.50;78.50
39815;DHT22;25495;45.948;4.568;2022-07-29T02:23:51;20.20;79.00
39815;DHT22;25495;45.948;4.568;2022-07-29T02:26:20;20.30;80.10
39815;DHT22;25495;45.948;4.568;2022-07-29T02:28:50;20.10;79.60
39815;DHT22;25495;45.948;4.568;2022-07-29T02:31:18;20.00;80.40
39815;DHT22;25495;45.948;4.568;2022-07-29T02:33:47;19.70;80.70
39815;DHT22;25495;45.948;4.568;2022-07-29T02:36:15;19.80;80.30
39815;DHT22;25495;45.948;4.568;2022-07-29T02:38:42;20.00;79.90
39815;DHT22;25495;45.948;4.568;2022-07-29T02:41:30;19.80;80.20
39815;DHT22;25495;45.948;4.568;2022-07-29T02:44:05;20.00;79.80
39815;DHT22;25495;45.948;4.568;2022-07-29T02:46:33;20.20;79.00
39815;DHT22;25495;45.948;4.568;2022-07-29T02:51:57;20.50;78.60
39815;DHT22;25495;45.948;4.568;2022-07-29T02:54:33;20.60;77.30
39815;DHT22;25495;45.948;4.568;2022-07-29T02:57:11;20.50;77.50
39815;DHT22;25495;45.948;4.568;2022-07-29T02:59:41;20.30;78.80
39815;DHT22;25495;45.948;4.568;2022-07-29T03:02:09;20.40;78.70
39815;DHT22;25495;45.948;4.568;2022-07-29T03:04:35;20.30;78.90
39815;DHT22;25495;45.948;4.568;2022-07-29T03:07:03;20.10;79.70
39815;DHT22;25495;45.948;4.568;2022-07-29T03:09:30;19.80;80.80
39815;DHT22;25495;45.948;4.568;2022-07-29T03:11:57;19.50;81.50
39815;DHT22;25495;45.948;4.568;2022-07-29T03:14:23;19.50;81.80
39815;DHT22;25495;45.948;4.568;2022-07-29T03:16:50;19.60;81.40
39815;DHT22;25495;45.948;4.568;2022-07-29T03:19:18;19.60;80.80
39815;DHT22;25495;45.948;4.568;2022-07-29T03:21:44;19.60;81.00
39815;DHT22;25495;45.948;4.568;2022-07-29T03:24:10;19.50;81.30
39815;DHT22;25495;45.948;4.568;2022-07-29T03:26:35;19.60;81.30
39815;DHT22;25495;45.948;4.568;2022-07-29T03:29:01;19.70;80.50
39815;DHT22;25495;45.948;4.568;2022-07-29T03:31:27;19.90;79.50
39815;DHT22;25495;45.948;4.568;2022-07-29T03:33:53;20.00;79.60
39815;DHT22;25495;45.948;4.568;2022-07-29T03:36:18;20.10;80.10
39815;DHT22;25495;45.948;4.568;2022-07-29T03:38:44;20.10;80.40
39815;DHT22;25495;45.948;4.568;2022-07-29T03:41:11;20.10;80.20
39815;DHT22;25495;45.948;4.568;2022-07-29T03:43:40;20.00;80.60
39815;DHT22;25495;45.948;4.568;2022-07-29T03:46:07;19.90;80.20
39815;DHT22;25495;45.948;4.568;2022-07-29T03:48:37;19.70;80.60
39815;DHT22;25495;45.948;4.568;2022-07-29T03:51:05;19.60;81.10
39815;DHT22;25495;45.948;4.568;2022-07-29T03:53:31;19.60;81.50
39815;DHT22;25495;45.948;4.568;2022-07-29T03:55:59;19.50;81.60
39815;DHT22;25495;45.948;4.568;2022-07-29T03:58:27;19.50;81.30
39815;DHT22;25495;45.948;4.568;2022-07-29T04:00:54;19.60;81.50
39815;DHT22;25495;45.948;4.568;2022-07-29T04:03:21;19.60;80.80
39815;DHT22;25495;45.948;4.568;2022-07-29T04:06:01;19.80;79.90
39815;DHT22;25495;45.948;4.568;2022-07-29T04:08:27;20.00;79.70
39815;DHT22;25495;45.948;4.568;2022-07-29T04:10:52;20.00;80.10
39815;DHT22;25495;45.948;4.568;2022-07-29T04:13:20;20.00;79.70
39815;DHT22;25495;45.948;4.568;2022-07-29T04:15:46;20.00;79.70
39815;DHT22;25495;45.948;4.568;2022-07-29T04:18:11;20.10;79.50
39815;DHT22;25495;45.948;4.568;2022-07-29T04:20:37;20.20;79.30
39815;DHT22;25495;45.948;4.568;2022-07-29T04:23:03;20.30;79.70
39815;DHT22;25495;45.948;4.568;2022-07-29T04:25:29;20.20;79.10
39815;DHT22;25495;45.948;4.568;2022-07-29T04:27:54;20.40;78.00
39815;DHT22;25495;45.948;4.568;2022-07-29T04:30:26;20.50;77.50
39815;DHT22;25495;45.948;4.568;2022-07-29T04:32:52;20.60;77.20
39815;DHT22;25495;45.948;4.568;2022-07-29T04:35:19;20.50;79.00
39815;DHT22;25495;45.948;4.568;2022-07-29T04:37:45;20.50;79.10
39815;DHT22;25495;45.948;4.568;2022-07-29T04:40:11;20.40;80.10
39815;DHT22;25495;45.948;4.568;2022-07-29T04:42:37;20.40;81.20
39815;DHT22;25495;45.948;4.568;2022-07-29T04:45:04;20.30;81.40
39815;DHT22;25495;45.948;4.568;2022-07-29T04:47:30;20.20;82.60
39815;DHT22;25495;45.948;4.568;2022-07-29T04:49:55;20.10;82.00
39815;DHT22;25495;45.948;4.568;2022-07-29T04:52:22;19.90;82.70
39815;DHT22;25495;45.948;4.568;2022-07-29T04:54:48;19.80;82.30
39815;DHT22;25495;45.948;4.568;2022-07-29T04:57:14;19.90;82.10
39815;DHT22;25495;45.948;4.568;2022-07-29T04:59:39;20.00;82.30
39815;DHT22;25495;45.948;4.568;2022-07-29T05:02:05;19.90;82.90
39815;DHT22;25495;45.948;4.568;2022-07-29T05:04:31;19.90;82.20
39815;DHT22;25495;45.948;4.568;2022-07-29T05:06:57;20.00;82.10
39815;DHT22;25495;45.948;4.568;2022-07-29T05:09:22;20.10;82.00
39815;DHT22;25495;45.948;4.568;2022-07-29T05:11:48;19.90;82.90
39815;DHT22;25495;45.948;4.568;2022-07-29T05:14:14;19.90;82.10
39815;DHT22;25495;45.948;4.568;2022-07-29T05:16:40;20.00;82.30
39815;DHT22;25495;45.948;4.568;2022-07-29T05:19:06;19.90;82.10
39815;DHT22;25495;45.948;4.568;2022-07-29T05:21:32;19.80;83.10
39815;DHT22;25495;45.948;4.568;2022-07-29T05:23:57;19.90;82.20
39815;DHT22;25495;45.948;4.568;2022-07-29T05:26:23;20.00;82.00
39815;DHT22;25495;45.948;4.568;2022-07-29T05:28:49;20.20;82.20
39815;DHT22;25495;45.948;4.568;2022-07-29T05:31:15;20.20;82.80
39815;DHT22;25495;45.948;4.568;2022-07-29T05:33:41;20.10;83.20
39815;DHT22;25495;45.948;4.568;2022-07-29T05:36:07;20.20;83.40
39815;DHT22;25495;45.948;4.568;2022-07-29T05:38:34;20.10;83.30
39815;DHT22;25495;45.948;4.568;2022-07-29T05:41:00;20.00;83.50
39815;DHT22;25495;45.948;4.568;2022-07-29T05:43:29;19.90;84.00
39815;DHT22;25495;45.948;4.568;2022-07-29T05:45:55;19.90;83.80
39815;DHT22;25495;45.948;4.568;2022-07-29T05:48:21;20.00;83.40
39815;DHT22;25495;45.948;4.568;2022-07-29T05:50:47;20.10;82.80
39815;DHT22;25495;45.948;4.568;2022-07-29T05:53:12;20.20;83.00
39815;DHT22;25495;45.948;4.568;2022-07-29T05:55:38;20.30;82.80
39815;DHT22;25495;45.948;4.568;2022-07-29T05:58:04;20.50;82.00
39815;DHT22;25495;45.948;4.568;2022-07-29T06:00:30;20.80;84.00
39815;DHT22;25495;45.948;4.568;2022-07-29T06:02:55;20.90;84.60
39815;DHT22;25495;45.948;4.568;2022-07-29T06:05:22;21.10;85.80
39815;DHT22;25495;45.948;4.568;2022-07-29T06:07:48;21.10;86.60
39815;DHT22;25495;45.948;4.568;2022-07-29T06:10:14;21.40;86.90
39815;DHT22;25495;45.948;4.568;2022-07-29T06:12:40;21.30;84.60
39815;DHT22;25495;45.948;4.568;2022-07-29T06:15:06;21.40;84.80
39815;DHT22;25495;45.948;4.568;2022-07-29T06:17:32;21.70;84.10
39815;DHT22;25495;45.948;4.568;2022-07-29T06:19:57;21.90;83.50
39815;DHT22;25495;45.948;4.568;2022-07-29T06:22:23;22.00;83.80
39815;DHT22;25495;45.948;4.568;2022-07-29T06:24:49;21.80;84.20
39815;DHT22;25495;45.948;4.568;2022-07-29T06:27:15;21.80;84.60
39815;DHT22;25495;45.948;4.568;2022-07-29T06:29:41;21.80;83.20
39815;DHT22;25495;45.948;4.568;2022-07-29T06:32:07;21.60;83.10
39815;DHT22;25495;45.948;4.568;2022-07-29T06:34:35;21.40;82.60
39815;DHT22;25495;45.948;4.568;2022-07-29T06:37:08;21.20;81.20
39815;DHT22;25495;45.948;4.568;2022-07-29T06:39:35;21.20;81.60
39815;DHT22;25495;45.948;4.568;2022-07-29T06:42:02;21.40;81.50
39815;DHT22;25495;45.948;4.568;2022-07-29T06:44:28;21.60;81.70
39815;DHT22;25495;45.948;4.568;2022-07-29T06:46:53;21.80;82.20
39815;DHT22;25495;45.948;4.568;2022-07-29T06:49:20;21.80;83.50
39815;DHT22;25495;45.948;4.568;2022-07-29T06:51:45;21.90;83.30
39815;DHT22;25495;45.948;4.568;2022-07-29T06:54:13;21.90;83.00
39815;DHT22;25495;45.948;4.568;2022-07-29T06:56:39;21.90;82.90
39815;DHT22;25495;45.948;4.568;2022-07-29T06:59:11;22.00;82.50
39815;DHT22;25495;45.948;4.568;2022-07-29T07:01:39;22.10;82.10
39815;DHT22;25495;45.948;4.568;2022-07-29T07:04:05;22.00;82.40
39815;DHT22;25495;45.948;4.568;2022-07-29T07:06:31;21.90;83.50
39815;DHT22;25495;45.948;4.568;2022-07-29T07:08:57;21.70;84.20
39815;DHT22;25495;45.948;4.568;2022-07-29T07:11:23;21.70;84.80
39815;DHT22;25495;45.948;4.568;2022-07-29T07:13:49;21.80;84.30
39815;DHT22;25495;45.948;4.568;2022-07-29T07:16:14;21.70;82.20
39815;DHT22;25495;45.948;4.568;2022-07-29T07:18:41;21.80;80.90
39815;DHT22;25495;45.948;4.568;2022-07-29T07:21:06;22.00;83.30
39815;DHT22;25495;45.948;4.568;2022-07-29T07:23:32;22.20;82.40
39815;DHT22;25495;45.948;4.568;2022-07-29T07:25:58;22.20;84.20
39815;DHT22;25495;45.948;4.568;2022-07-29T07:28:24;22.00;85.00
39815;DHT22;25495;45.948;4.568;2022-07-29T07:30:49;21.90;86.00
39815;DHT22;25495;45.948;4.568;2022-07-29T07:33:15;21.90;86.60
39815;DHT22;25495;45.948;4.568;2022-07-29T07:35:41;21.90;86.30
39815;DHT22;25495;45.948;4.568;2022-07-29T07:38:07;21.90;86.10
39815;DHT22;25495;45.948;4.568;2022-07-29T07:40:33;22.00;86.40
39815;DHT22;25495;45.948;4.568;2022-07-29T07:42:59;22.10;85.70
39815;DHT22;25495;45.948;4.568;2022-07-29T07:45:24;22.30;85.10
39815;DHT22;25495;45.948;4.568;2022-07-29T07:47:50;22.40;86.00
39815;DHT22;25495;45.948;4.568;2022-07-29T07:50:16;22.60;85.10
39815;DHT22;25495;45.948;4.568;2022-07-29T07:52:51;22.60;83.20
39815;DHT22;25495;45.948;4.568;2022-07-29T07:55:18;22.70;82.70
39815;DHT22;25495;45.948;4.568;2022-07-29T07:57:45;22.40;80.70
39815;DHT22;25495;45.948;4.568;2022-07-29T08:00:13;22.30;80.90
39815;DHT22;25495;45.948;4.568;2022-07-29T08:02:39;22.10;81.20
39815;DHT22;25495;45.948;4.568;2022-07-29T08:05:06;21.90;80.90
39815;DHT22;25495;45.948;4.568;2022-07-29T08:07:33;21.80;80.70
39815;DHT22;25495;45.948;4.568;2022-07-29T08:09:58;21.80;81.20
39815;DHT22;25495;45.948;4.568;2022-07-29T08:12:24;21.70;80.40
39815;DHT22;25495;45.948;4.568;2022-07-29T08:14:50;21.60;79.60
39815;DHT22;25495;45.948;4.568;2022-07-29T08:17:16;21.60;80.10
39815;DHT22;25495;45.948;4.568;2022-07-29T08:19:41;21.50;79.50
39815;DHT22;25495;45.948;4.568;2022-07-29T08:22:07;21.50;80.20
39815;DHT22;25495;45.948;4.568;2022-07-29T08:24:33;21.70;80.20
39815;DHT22;25495;45.948;4.568;2022-07-29T08:27:09;21.80;80.10
39815;DHT22;25495;45.948;4.568;2022-07-29T08:29:36;21.60;79.00
39815;DHT22;25495;45.948;4.568;2022-07-29T08:32:02;21.60;79.70
39815;DHT22;25495;45.948;4.568;2022-07-29T08:34:28;21.50;79.40
39815;DHT22;25495;45.948;4.568;2022-07-29T08:36:54;21.60;80.00
39815;DHT22;25495;45.948;4.568;2022-07-29T08:39:21;21.60;80.20
39815;DHT22;25495;45.948;4.568;2022-07-29T08:41:48;21.40;80.50
39815;DHT22;25495;45.948;4.568;2022-07-29T08:44:23;21.50;80.90
39815;DHT22;25495;45.948;4.568;2022-07-29T08:46:50;21.70;80.70
39815;DHT22;25495;45.948;4.568;2022-07-29T08:49:16;21.70;81.30
39815;DHT22;25495;45.948;4.568;2022-07-29T08:51:45;22.00;81.00
39815;DHT22;25495;45.948;4.568;2022-07-29T08:54:17;22.00;81.20
39815;DHT22;25495;45.948;4.568;2022-07-29T08:56:44;21.80;81.00
39815;DHT22;25495;45.948;4.568;2022-07-29T08:59:11;21.90;81.10
39815;DHT22;25495;45.948;4.568;2022-07-29T09:01:38;22.00;81.60
39815;DHT22;25495;45.948;4.568;2022-07-29T09:04:10;22.20;81.10
39815;DHT22;25495;45.948;4.568;2022-07-29T09:06:48;22.20;80.80
39815;DHT22;25495;45.948;4.568;2022-07-29T09:09:15;22.20;80.90
39815;DHT22;25495;45.948;4.568;2022-07-29T09:11:41;22.00;81.30
39815;DHT22;25495;45.948;4.568;2022-07-29T09:14:08;22.00;80.50
39815;DHT22;25495;45.948;4.568;2022-07-29T09:16:53;22.10;81.20
39815;DHT22;25495;45.948;4.568;2022-07-29T09:19:32;22.20;80.50
39815;DHT22;25495;45.948;4.568;2022-07-29T09:22:02;22.20;81.10
39815;DHT22;25495;45.948;4.568;2022-07-29T09:24:38;21.90;80.90
39815;DHT22;25495;45.948;4.568;2022-07-29T09:29:36;22.10;80.60
39815;DHT22;25495;45.948;4.568;2022-07-29T09:32:08;22.30;80.50
39815;DHT22;25495;45.948;4.568;2022-07-29T09:34:34;22.20;80.30
39815;DHT22;25495;45.948;4.568;2022-07-29T09:37:00;22.20;79.90
39815;DHT22;25495;45.948;4.568;2022-07-29T09:39:31;22.40;79.40
39815;DHT22;25495;45.948;4.568;2022-07-29T09:42:00;22.50;79.20
39815;DHT22;25495;45.948;4.568;2022-07-29T09:44:26;22.50;78.50
39815;DHT22;25495;45.948;4.568;2022-07-29T09:47:03;22.60;78.90
39815;DHT22;25495;45.948;4.568;2022-07-29T09:49:34;22.70;78.80
39815;DHT22;25495;45.948;4.568;2022-07-29T09:52:03;22.70;78.80
39815;DHT22;25495;45.948;4.568;2022-07-29T09:54:29;22.70;78.50
39815;DHT22;25495;45.948;4.568;2022-07-29T09:56:59;22.70;79.40
39815;DHT22;25495;45.948;4.568;2022-07-29T09:59:25;22.60;77.20
39815;DHT22;25495;45.948;4.568;2022-07-29T10:01:52;22.70;78.50
39815;DHT22;25495;45.948;4.568;2022-07-29T10:04:20;22.80;79.00
39815;DHT22;25495;45.948;4.568;2022-07-29T10:07:00;22.80;78.40
39815;DHT22;25495;45.948;4.568;2022-07-29T10:09:26;22.80;78.70
39815;DHT22;25495;45.948;4.568;2022-07-29T10:12:13;22.80;79.20
39815;DHT22;25495;45.948;4.568;2022-07-29T10:14:40;22.90;78.90
39815;DHT22;25495;45.948;4.568;2022-07-29T10:17:08;23.00;79.40
39815;DHT22;25495;45.948;4.568;2022-07-29T10:19:36;22.90;79.10
39815;DHT22;25495;45.948;4.568;2022-07-29T10:22:06;22.90;79.40
39815;DHT22;25495;45.948;4.568;2022-07-29T10:24:34;22.90;79.10
39815;DHT22;25495;45.948;4.568;2022-07-29T10:27:02;22.70;78.70
39815;DHT22;25495;45.948;4.568;2022-07-29T10:29:29;22.80;79.30
39815;DHT22;25495;45.948;4.568;2022-07-29T10:37:35;23.20;93.30
39815;DHT22;25495;45.948;4.568;2022-07-29T10:40:17;23.10;78.40
39815;DHT22;25495;45.948;4.568;2022-07-29T10:43:19;23.40;78.50
39815;DHT22;25495;45.948;4.568;2022-07-29T10:45:48;23.60;79.60
39815;DHT22;25495;45.948;4.568;2022-07-29T10:48:15;23.20;78.50
39815;DHT22;25495;45.948;4.568;2022-07-29T10:53:25;23.10;93.20
39815;DHT22;25495;45.948;4.568;2022-07-29T11:01:48;24.00;76.50
39815;DHT22;25495;45.948;4.568;2022-07-29T11:04:15;23.80;75.90
39815;DHT22;25495;45.948;4.568;2022-07-29T11:09:26;24.60;74.80
39815;DHT22;25495;45.948;4.568;2022-07-29T11:11:52;24.70;73.40
39815;DHT22;25495;45.948;4.568;2022-07-29T11:17:18;25.00;73.40
39815;DHT22;25495;45.948;4.568;2022-07-29T11:19:44;24.70;73.50
39815;DHT22;25495;45.948;4.568;2022-07-29T11:22:10;24.90;72.90
39815;DHT22;25495;45.948;4.568;2022-07-29T11:24:37;24.90;73.70
39815;DHT22;25495;45.948;4.568;2022-07-29T11:27:19;25.20;72.60
39815;DHT22;25495;45.948;4.568;2022-07-29T11:32:17;24.30;71.90
39815;DHT22;25495;45.948;4.568;2022-07-29T11:34:46;24.90;72.30
39815;DHT22;25495;45.948;4.568;2022-07-29T11:40:08;24.20;71.90
39815;DHT22;25495;45.948;4.568;2022-07-29T11:45:21;24.70;70.50
39815;DHT22;25495;45.948;4.568;2022-07-29T11:47:50;24.90;70.40
39815;DHT22;25495;45.948;4.568;2022-07-29T11:50:26;25.10;71.10
39815;DHT22;25495;45.948;4.568;2022-07-29T11:52:52;25.20;70.30
39815;DHT22;25495;45.948;4.568;2022-07-29T11:55:20;25.70;69.70
39815;DHT22;25495;45.948;4.568;2022-07-29T11:57:58;25.50;68.20
39815;DHT22;25495;45.948;4.568;2022-07-29T12:00:37;25.60;69.30
39815;DHT22;25495;45.948;4.568;2022-07-29T12:03:06;25.90;68.90
39815;DHT22;25495;45.948;4.568;2022-07-29T12:05:36;26.00;69.10
39815;DHT22;25495;45.948;4.568;2022-07-29T12:08:08;25.80;67.70
39815;DHT22;25495;45.948;4.568;2022-07-29T12:10:35;25.60;67.90
39815;DHT22;25495;45.948;4.568;2022-07-29T12:13:02;25.60;68.00
39815;DHT22;25495;45.948;4.568;2022-07-29T12:15:27;26.00;68.00
39815;DHT22;25495;45.948;4.568;2022-07-29T12:17:53;25.80;67.80
39815;DHT22;25495;45.948;4.568;2022-07-29T12:20:24;25.50;67.90
39815;DHT22;25495;45.948;4.568;2022-07-29T12:22:50;26.20;68.00
39815;DHT22;25495;45.948;4.568;2022-07-29T12:25:19;26.00;67.80
39815;DHT22;25495;45.948;4.568;2022-07-29T12:27:45;25.80;68.50
39815;DHT22;25495;45.948;4.568;2022-07-29T12:30:13;25.80;67.70
39815;DHT22;25495;45.948;4.568;2022-07-29T12:32:42;25.70;67.90
39815;DHT22;25495;45.948;4.568;2022-07-29T12:35:14;25.80;68.40
39815;DHT22;25495;45.948;4.568;2022-07-29T12:37:42;25.80;69.00
39815;DHT22;25495;45.948;4.568;2022-07-29T12:40:10;26.10;68.50
39815;DHT22;25495;45.948;4.568;2022-07-29T12:42:36;26.40;67.70
39815;DHT22;25495;45.948;4.568;2022-07-29T12:45:03;25.90;67.60
39815;DHT22;25495;45.948;4.568;2022-07-29T12:47:30;25.80;68.20
39815;DHT22;25495;45.948;4.568;2022-07-29T12:50:14;25.90;67.30
39815;DHT22;25495;45.948;4.568;2022-07-29T12:52:44;26.10;67.60
39815;DHT22;25495;45.948;4.568;2022-07-29T12:55:10;25.90;66.80
39815;DHT22;25495;45.948;4.568;2022-07-29T12:57:47;26.30;66.70
39815;DHT22;25495;45.948;4.568;2022-07-29T13:00:14;26.10;67.80
39815;DHT22;25495;45.948;4.568;2022-07-29T13:02:41;26.10;67.20
39815;DHT22;25495;45.948;4.568;2022-07-29T13:05:08;26.20;67.00
39815;DHT22;25495;45.948;4.568;2022-07-29T13:07:35;26.20;67.60
39815;DHT22;25495;45.948;4.568;2022-07-29T13:10:20;26.10;67.00
39815;DHT22;25495;45.948;4.568;2022-07-29T13:13:10;26.00;67.20
39815;DHT22;25495;45.948;4.568;2022-07-29T13:15:38;25.90;66.90
39815;DHT22;25495;45.948;4.568;2022-07-29T13:18:25;26.00;67.50
39815;DHT22;25495;45.948;4.568;2022-07-29T13:20:51;26.10;69.10
39815;DHT22;25495;45.948;4.568;2022-07-29T13:23:16;26.40;66.30
39815;DHT22;25495;45.948;4.568;2022-07-29T13:25:42;26.40;66.20
39815;DHT22;25495;45.948;4.568;2022-07-29T13:28:08;26.40;66.10
39815;DHT22;25495;45.948;4.568;2022-07-29T13:30:33;26.40;66.00
39815;DHT22;25495;45.948;4.568;2022-07-29T13:32:59;26.40;66.60
39815;DHT22;25495;45.948;4.568;2022-07-29T13:35:25;26.40;67.80
39815;DHT22;25495;45.948;4.568;2022-07-29T13:37:51;26.60;68.40
39815;DHT22;25495;45.948;4.568;2022-07-29T13:40:17;26.70;66.00
39815;DHT22;25495;45.948;4.568;2022-07-29T13:42:43;26.60;67.70
39815;DHT22;25495;45.948;4.568;2022-07-29T13:45:10;26.10;67.10
39815;DHT22;25495;45.948;4.568;2022-07-29T13:47:36;26.10;67.90
39815;DHT22;25495;45.948;4.568;2022-07-29T13:50:04;26.10;67.50
39815;DHT22;25495;45.948;4.568;2022-07-29T13:52:30;26.10;67.80
39815;DHT22;25495;45.948;4.568;2022-07-29T13:54:56;25.90;67.10
39815;DHT22;25495;45.948;4.568;2022-07-29T13:57:22;25.50;68.30
39815;DHT22;25495;45.948;4.568;2022-07-29T13:59:47;25.80;67.90
39815;DHT22;25495;45.948;4.568;2022-07-29T14:02:13;25.20;68.70
39815;DHT22;25495;45.948;4.568;2022-07-29T14:04:39;25.40;68.80
39815;DHT22;25495;45.948;4.568;2022-07-29T14:07:06;25.50;68.40
39815;DHT22;25495;45.948;4.568;2022-07-29T14:09:32;25.40;68.20
39815;DHT22;25495;45.948;4.568;2022-07-29T14:11:57;25.40;68.70
39815;DHT22;25495;45.948;4.568;2022-07-29T14:14:23;25.40;68.30
39815;DHT22;25495;45.948;4.568;2022-07-29T14:16:49;25.20;69.00
39815;DHT22;25495;45.948;4.568;2022-07-29T14:19:15;25.00;69.00
39815;DHT22;25495;45.948;4.568;2022-07-29T14:21:40;24.90;68.70
39815;DHT22;25495;45.948;4.568;2022-07-29T14:24:07;25.10;68.70
39815;DHT22;25495;45.948;4.568;2022-07-29T14:26:32;25.20;69.00
39815;DHT22;25495;45.948;4.568;2022-07-29T14:28:58;25.20;68.90
39815;DHT22;25495;45.948;4.568;2022-07-29T14:31:24;25.20;68.80
39815;DHT22;25495;45.948;4.568;2022-07-29T14:33:51;25.20;68.90
39815;DHT22;25495;45.948;4.568;2022-07-29T14:36:17;25.20;68.80
39815;DHT22;25495;45.948;4.568;2022-07-29T14:38:45;25.20;69.30
39815;DHT22;25495;45.948;4.568;2022-07-29T14:41:11;25.00;69.70
39815;DHT22;25495;45.948;4.568;2022-07-29T14:43:37;25.00;69.90
39815;DHT22;25495;45.948;4.568;2022-07-29T14:46:03;24.90;69.60
39815;DHT22;25495;45.948;4.568;2022-07-29T14:48:29;25.00;69.00
39815;DHT22;25495;45.948;4.568;2022-07-29T14:50:55;25.00;70.10
39815;DHT22;25495;45.948;4.568;2022-07-29T14:53:22;24.90;70.60
39815;DHT22;25495;45.948;4.568;2022-07-29T14:55:47;25.00;70.30
39815;DHT22;25495;45.948;4.568;2022-07-29T14:58:13;24.90;70.50
39815;DHT22;25495;45.948;4.568;2022-07-29T15:00:40;25.10;70.70
39815;DHT22;25495;45.948;4.568;2022-07-29T15:03:06;25.10;69.80
39815;DHT22;25495;45.948;4.568;2022-07-29T15:05:35;25.20;70.00
39815;DHT22;25495;45.948;4.568;2022-07-29T15:08:01;25.10;70.30
39815;DHT22;25495;45.948;4.568;2022-07-29T15:10:29;25.10;70.70
39815;DHT22;25495;45.948;4.568;2022-07-29T15:12:55;24.90;70.10
39815;DHT22;25495;45.948;4.568;2022-07-29T15:15:21;24.80;70.50
39815;DHT22;25495;45.948;4.568;2022-07-29T15:17:48;24.70;70.50
39815;DHT22;25495;45.948;4.568;2022-07-29T15:20:14;24.90;70.50
39815;DHT22;25495;45.948;4.568;2022-07-29T15:22:40;24.80;70.10
39815;DHT22;25495;45.948;4.568;2022-07-29T15:25:09;25.10;70.60
39815;DHT22;25495;45.948;4.568;2022-07-29T15:27:38;25.20;70.00
39815;DHT22;25495;45.948;4.568;2022-07-29T15:30:04;25.60;69.10
39815;DHT22;25495;45.948;4.568;2022-07-29T15:32:31;25.40;69.50
39815;DHT22;25495;45.948;4.568;2022-07-29T15:34:57;25.50;69.70
39815;DHT22;25495;45.948;4.568;2022-07-29T15:37:22;25.30;70.00
39815;DHT22;25495;45.948;4.568;2022-07-29T15:39:49;25.30;68.90
39815;DHT22;25495;45.948;4.568;2022-07-29T15:42:15;25.20;69.80
39815;DHT22;25495;45.948;4.568;2022-07-29T15:44:40;25.20;69.30
39815;DHT22;25495;45.948;4.568;2022-07-29T15:47:06;25.00;69.60
39815;DHT22;25495;45.948;4.568;2022-07-29T15:49:41;25.00;69.80
39815;DHT22;25495;45.948;4.568;2022-07-29T15:52:08;25.20;69.70
39815;DHT22;25495;45.948;4.568;2022-07-29T15:54:36;24.90;69.80
39815;DHT22;25495;45.948;4.568;2022-07-29T15:57:04;25.30;69.80
39815;DHT22;25495;45.948;4.568;2022-07-29T15:59:30;25.40;69.70
39815;DHT22;25495;45.948;4.568;2022-07-29T16:01:56;25.60;69.70
39815;DHT22;25495;45.948;4.568;2022-07-29T16:04:22;25.40;69.20
39815;DHT22;25495;45.948;4.568;2022-07-29T16:06:48;25.40;69.80
39815;DHT22;25495;45.948;4.568;2022-07-29T16:09:15;25.40;69.50
39815;DHT22;25495;45.948;4.568;2022-07-29T16:11:41;25.30;69.40
39815;DHT22;25495;45.948;4.568;2022-07-29T16:14:08;25.20;70.20
39815;DHT22;25495;45.948;4.568;2022-07-29T16:16:35;25.30;69.80
39815;DHT22;25495;45.948;4.568;2022-07-29T16:19:02;25.60;69.30